createdAt,value
2018-04-09T00:00:30.985Z,16.30
2018-04-09T00:01:30.976Z,16.00
2018-04-09T00:02:30.958Z,16.50
2018-04-09T00:03:30.945Z,16.90
2018-04-09T00:04:30.938Z,16.50
2018-04-09T00:05:30.915Z,16.60
2018-04-09T00:06:30.905Z,16.90
2018-04-09T00:07:30.888Z,16.60
2018-04-09T00:08:30.896Z,16.40
2018-04-09T00:09:30.859Z,17.00
2018-04-09T00:10:30.854Z,16.50
2018-04-09T00:11:30.842Z,16.90
2018-04-09T00:12:30.817Z,16.10
2018-04-09T00:13:30.802Z,15.80
2018-04-09T00:14:30.789Z,16.10
2018-04-09T00:15:30.776Z,16.00
2018-04-09T00:16:30.764Z,16.30
2018-04-09T00:17:30.750Z,16.80
2018-04-09T00:18:30.739Z,16.00
2018-04-09T00:19:30.718Z,15.30
2018-04-09T00:20:30.703Z,16.40
2018-04-09T00:21:30.697Z,15.80
2018-04-09T00:22:30.676Z,17.00
2018-04-09T00:23:30.662Z,16.10
2018-04-09T00:24:30.645Z,16.40
2018-04-09T00:25:30.633Z,15.50
2018-04-09T00:26:30.618Z,16.80
2018-04-09T00:27:30.602Z,15.90
2018-04-09T00:28:30.593Z,15.90
2018-04-09T00:29:30.585Z,16.50
2018-04-09T00:30:30.580Z,16.20
2018-04-09T00:31:30.545Z,15.80
2018-04-09T00:32:30.636Z,17.00
2018-04-09T00:33:30.518Z,16.10
2018-04-09T00:34:30.504Z,15.20
2018-04-09T00:35:30.560Z,15.80
2018-04-09T00:36:30.476Z,16.30
2018-04-09T00:37:30.463Z,16.30
2018-04-09T00:38:30.446Z,16.10
2018-04-09T00:39:30.432Z,16.90
2018-04-09T00:40:30.424Z,17.10
2018-04-09T00:41:30.401Z,16.20
2018-04-09T00:42:30.392Z,17.00
2018-04-09T00:43:30.374Z,16.20
2018-04-09T00:44:30.360Z,16.90
2018-04-09T00:45:30.346Z,17.10
2018-04-09T00:46:30.348Z,16.40
2018-04-09T00:47:30.315Z,16.80
2018-04-09T00:48:30.385Z,16.20
2018-04-09T00:49:30.288Z,16.80
2018-04-09T00:50:30.273Z,16.90
2018-04-09T00:51:30.265Z,16.10
2018-04-09T00:52:30.243Z,16.50
2018-04-09T00:53:30.237Z,15.40
2018-04-09T00:54:30.215Z,16.00
2018-04-09T00:55:30.202Z,16.30
2018-04-09T00:56:30.186Z,16.60
2018-04-09T00:57:30.172Z,15.30
2018-04-09T00:58:30.172Z,16.20
2018-04-09T00:59:30.142Z,16.20
2018-04-09T01:00:30.128Z,16.00
2018-04-09T01:01:30.113Z,16.70
2018-04-09T01:02:30.099Z,16.50
2018-04-09T01:03:30.082Z,16.70
2018-04-09T01:04:30.170Z,16.90
2018-04-09T01:05:30.054Z,16.50
2018-04-09T01:06:30.039Z,15.90
2018-04-09T01:07:30.080Z,17.00
2018-04-09T01:08:30.008Z,16.00
2018-04-09T01:09:30.000Z,15.80
2018-04-09T01:10:29.980Z,15.80
2018-04-09T01:11:29.971Z,16.90
2018-04-09T01:12:29.953Z,16.00
2018-04-09T01:13:29.948Z,15.90
2018-04-09T01:14:29.927Z,15.80
2018-04-09T01:15:29.908Z,15.90
2018-04-09T01:16:29.890Z,16.50
2018-04-09T01:17:29.878Z,17.00
2018-04-09T01:18:29.861Z,16.70
2018-04-09T01:19:29.849Z,15.80
2018-04-09T01:20:29.832Z,15.80
2018-04-09T01:21:29.816Z,15.90
2018-04-09T01:22:29.819Z,16.00
2018-04-09T01:23:29.790Z,15.60
2018-04-09T01:24:29.773Z,16.10
2018-04-09T01:25:29.758Z,16.80
2018-04-09T01:26:29.748Z,16.60
2018-04-09T01:27:29.736Z,16.50
2018-04-09T01:28:29.834Z,17.30
2018-04-09T01:29:29.701Z,15.20
2018-04-09T01:30:29.686Z,16.10
2018-04-09T01:31:29.671Z,16.10
2018-04-09T01:32:29.658Z,15.90
2018-04-09T01:33:29.638Z,16.70
2018-04-09T01:34:29.625Z,16.20
2018-04-09T01:35:29.613Z,17.00
2018-04-09T01:36:29.614Z,15.70
2018-04-09T01:37:29.613Z,15.80
2018-04-09T01:38:29.564Z,16.80
2018-04-09T01:39:29.550Z,16.30
2018-04-09T01:40:29.538Z,17.10
2018-04-09T01:41:29.651Z,16.50
2018-04-09T01:42:29.514Z,16.30
2018-04-09T01:43:29.489Z,16.30
2018-04-09T01:44:29.476Z,16.70
2018-04-09T01:45:29.464Z,16.30
2018-04-09T01:46:29.444Z,16.00
2018-04-09T01:47:29.427Z,15.80
2018-04-09T01:48:29.417Z,16.40
2018-04-09T01:49:29.403Z,15.70
2018-04-09T01:50:29.386Z,17.00
2018-04-09T01:51:29.373Z,15.70
2018-04-09T01:52:29.356Z,15.90
2018-04-09T01:53:29.357Z,16.70
2018-04-09T01:54:29.325Z,16.10
2018-04-09T01:55:29.312Z,16.50
2018-04-09T01:56:29.295Z,16.00
2018-04-09T01:57:29.367Z,16.20
2018-04-09T01:58:29.266Z,15.70
2018-04-09T01:59:29.253Z,16.30
2018-04-09T02:00:29.238Z,16.50
2018-04-09T02:01:29.222Z,16.50
2018-04-09T02:02:29.210Z,16.30
2018-04-09T02:03:29.191Z,16.30
2018-04-09T02:04:29.174Z,15.50
2018-04-09T02:05:29.162Z,16.60
2018-04-09T02:06:29.144Z,17.40
2018-04-09T02:07:29.139Z,16.70
2018-04-09T02:08:29.129Z,17.30
2018-04-09T02:09:29.101Z,16.50
2018-04-09T02:10:29.083Z,16.10
2018-04-09T02:11:29.070Z,16.70
2018-04-09T02:12:29.056Z,16.20
2018-04-09T02:13:29.048Z,16.00
2018-04-09T02:14:29.027Z,17.20
2018-04-09T02:15:29.010Z,16.70
2018-04-09T02:16:28.993Z,16.50
2018-04-09T02:17:29.092Z,16.50
2018-04-09T02:18:28.962Z,16.20
2018-04-09T02:19:28.949Z,16.40
2018-04-09T02:20:28.929Z,16.40
2018-04-09T02:21:28.920Z,16.90
2018-04-09T02:22:28.904Z,17.00
2018-04-09T02:23:28.895Z,17.50
2018-04-09T02:24:28.881Z,15.90
2018-04-09T02:25:28.860Z,16.90
2018-04-09T02:26:28.842Z,16.20
2018-04-09T02:27:28.829Z,16.60
2018-04-09T02:28:28.810Z,16.10
2018-04-09T02:29:28.800Z,16.80
2018-04-09T02:30:28.788Z,16.60
2018-04-09T02:31:28.764Z,17.00
2018-04-09T02:32:28.749Z,16.80
2018-04-09T02:33:28.734Z,16.90
2018-04-09T02:34:28.727Z,16.90
2018-04-09T02:35:28.705Z,17.60
2018-04-09T02:36:28.696Z,16.60
2018-04-09T02:37:28.674Z,16.80
2018-04-09T02:38:28.658Z,16.70
2018-04-09T02:39:28.640Z,16.70
2018-04-09T02:40:28.633Z,16.00
2018-04-09T02:41:28.610Z,16.70
2018-04-09T02:42:28.597Z,17.60
2018-04-09T02:43:28.589Z,17.00
2018-04-09T02:44:28.567Z,16.50
2018-04-09T02:45:28.562Z,16.50
2018-04-09T02:46:28.542Z,17.10
2018-04-09T02:47:28.518Z,16.90
2018-04-09T02:48:28.502Z,16.80
2018-04-09T02:49:28.490Z,17.20
2018-04-09T02:50:28.474Z,16.40
2018-04-09T02:51:28.458Z,17.20
2018-04-09T02:52:28.446Z,17.50
2018-04-09T02:53:28.432Z,17.00
2018-04-09T02:54:28.416Z,17.00
2018-04-09T02:55:28.395Z,17.40
2018-04-09T02:56:28.378Z,17.70
2018-04-09T02:57:28.415Z,17.00
2018-04-09T02:58:28.347Z,17.30
2018-04-09T02:59:28.340Z,17.40
2018-04-09T03:00:28.346Z,17.00
2018-04-09T03:01:28.310Z,18.30
2018-04-09T03:02:28.360Z,18.00
2018-04-09T03:03:28.272Z,17.80
2018-04-09T03:04:28.255Z,17.60
2018-04-09T03:05:28.243Z,17.30
2018-04-09T03:06:28.224Z,17.70
2018-04-09T03:07:28.208Z,18.20
2018-04-09T03:08:28.195Z,17.70
2018-04-09T03:09:28.175Z,17.40
2018-04-09T03:10:28.164Z,17.60
2018-04-09T03:11:28.144Z,18.70
2018-04-09T03:12:28.135Z,18.10
2018-04-09T03:13:28.113Z,18.40
2018-04-09T03:14:28.100Z,18.30
2018-04-09T03:15:28.093Z,18.10
2018-04-09T03:16:28.226Z,17.70
2018-04-09T03:17:28.055Z,19.10
2018-04-09T03:18:28.036Z,18.90
2018-04-09T03:19:28.026Z,19.00
2018-04-09T03:20:28.008Z,18.70
2018-04-09T03:21:27.990Z,18.00
2018-04-09T03:22:27.975Z,19.30
2018-04-09T03:23:27.959Z,18.80
2018-04-09T03:24:27.944Z,18.70
2018-04-09T03:25:27.929Z,18.60
2018-04-09T03:26:27.913Z,18.30
2018-04-09T03:27:27.895Z,17.90
2018-04-09T03:28:27.884Z,18.10
2018-04-09T03:29:27.866Z,18.90
2018-04-09T03:30:27.854Z,18.90
2018-04-09T03:31:27.834Z,18.00
2018-04-09T03:32:27.826Z,18.20
2018-04-09T03:33:27.804Z,18.10
2018-04-09T03:34:27.787Z,19.20
2018-04-09T03:35:27.828Z,20.40
2018-04-09T03:36:27.755Z,18.40
2018-04-09T03:37:27.742Z,18.50
2018-04-09T03:38:27.776Z,19.60
2018-04-09T03:39:27.707Z,19.30
2018-04-09T03:40:27.690Z,19.00
2018-04-09T03:41:27.690Z,18.90
2018-04-09T03:42:27.661Z,19.30
2018-04-09T03:43:27.641Z,18.90
2018-04-09T03:44:27.629Z,19.60
2018-04-09T03:45:27.615Z,18.90
2018-04-09T03:46:27.600Z,18.20
2018-04-09T03:47:27.581Z,19.30
2018-04-09T03:48:27.564Z,19.00
2018-04-09T03:49:27.549Z,19.10
2018-04-09T03:50:27.533Z,19.50
2018-04-09T03:51:27.523Z,19.50
2018-04-09T03:52:27.504Z,18.60
2018-04-09T03:53:27.485Z,18.70
2018-04-09T03:54:27.469Z,18.70
2018-04-09T03:55:27.452Z,20.00
2018-04-09T03:56:27.440Z,19.70
2018-04-09T03:57:27.420Z,18.50
2018-04-09T03:58:27.488Z,18.80
2018-04-09T03:59:27.396Z,19.10
2018-04-09T04:00:27.373Z,20.70
2018-04-09T04:01:27.358Z,18.40
2018-04-09T04:02:27.391Z,18.80
2018-04-09T04:03:27.330Z,19.00
2018-04-09T04:04:27.309Z,18.30
2018-04-09T04:05:27.297Z,18.90
2018-04-09T04:06:27.279Z,19.30
2018-04-09T04:07:27.260Z,19.70
2018-04-09T04:08:27.248Z,18.00
2018-04-09T04:09:27.233Z,18.10
2018-04-09T04:10:27.222Z,18.70
2018-04-09T04:11:27.197Z,19.20
2018-04-09T04:12:27.179Z,19.40
2018-04-09T04:13:27.166Z,18.80
2018-04-09T04:14:27.149Z,19.00
2018-04-09T04:15:27.133Z,19.20
2018-04-09T04:16:27.118Z,19.10
2018-04-09T04:17:27.102Z,20.20
2018-04-09T04:18:27.088Z,19.20
2018-04-09T04:19:27.078Z,19.50
2018-04-09T04:20:27.064Z,19.20
2018-04-09T04:21:27.036Z,19.60
2018-04-09T04:22:27.025Z,20.40
2018-04-09T04:23:27.051Z,19.70
2018-04-09T04:24:26.988Z,19.50
2018-04-09T04:25:26.993Z,20.40
2018-04-09T04:26:26.956Z,19.80
2018-04-09T04:27:26.956Z,20.20
2018-04-09T04:28:26.945Z,20.30
2018-04-09T04:29:26.913Z,20.50
2018-04-09T04:30:26.898Z,20.30
2018-04-09T04:31:26.875Z,20.20
2018-04-09T04:32:26.859Z,20.00
2018-04-09T04:33:26.845Z,19.70
2018-04-09T04:34:26.828Z,19.40
2018-04-09T04:35:26.809Z,19.80
2018-04-09T04:36:26.796Z,19.70
2018-04-09T04:37:26.779Z,20.80
2018-04-09T04:38:26.784Z,20.00
2018-04-09T04:39:26.752Z,19.90
2018-04-09T04:40:26.731Z,18.30
2018-04-09T04:41:26.808Z,20.80
2018-04-09T04:42:26.698Z,19.00
2018-04-09T04:43:26.681Z,21.00
2018-04-09T04:44:26.664Z,21.10
2018-04-09T04:45:26.721Z,20.00
2018-04-09T04:46:26.635Z,20.90
2018-04-09T04:47:26.619Z,20.60
2018-04-09T04:48:26.599Z,20.40
2018-04-09T04:49:26.584Z,19.70
2018-04-09T04:50:26.624Z,19.00
2018-04-09T04:51:26.547Z,19.60
2018-04-09T04:52:26.534Z,20.60
2018-04-09T04:53:26.517Z,20.10
2018-04-09T04:54:26.502Z,21.00
2018-04-09T04:55:26.502Z,20.70
2018-04-09T04:56:26.472Z,19.90
2018-04-09T04:57:26.452Z,19.70
2018-04-09T04:58:26.443Z,21.10
2018-04-09T04:59:26.422Z,20.40
2018-04-09T05:00:26.402Z,19.60
2018-04-09T05:01:26.386Z,19.20
2018-04-09T05:02:26.370Z,20.60
2018-04-09T05:03:26.372Z,20.70
2018-04-09T05:04:26.343Z,20.80
2018-04-09T05:05:26.330Z,20.70
2018-04-09T05:06:26.307Z,20.50
2018-04-09T05:07:26.292Z,20.90
2018-04-09T05:08:26.280Z,20.90
2018-04-09T05:09:26.278Z,21.30
2018-04-09T05:10:26.241Z,20.30
2018-04-09T05:11:26.225Z,19.30
2018-04-09T05:12:26.218Z,21.40
2018-04-09T05:13:26.192Z,20.50
2018-04-09T05:14:26.184Z,20.90
2018-04-09T05:15:26.161Z,20.90
2018-04-09T05:16:26.145Z,20.90
2018-04-09T05:17:26.130Z,20.60
2018-04-09T05:18:26.110Z,21.80
2018-04-09T05:19:26.099Z,20.30
2018-04-09T05:20:26.080Z,22.60
2018-04-09T05:21:26.065Z,23.40
2018-04-09T05:22:26.047Z,21.60
2018-04-09T05:23:26.029Z,22.90
2018-04-09T05:24:26.016Z,21.60
2018-04-09T05:25:26.000Z,20.70
2018-04-09T05:26:25.980Z,22.00
2018-04-09T05:27:25.968Z,20.40
2018-04-09T05:28:25.950Z,21.10
2018-04-09T05:29:25.932Z,21.90
2018-04-09T05:30:25.940Z,21.60
2018-04-09T05:31:25.902Z,22.60
2018-04-09T05:32:25.888Z,21.90
2018-04-09T05:33:25.877Z,21.10
2018-04-09T05:34:25.968Z,22.90
2018-04-09T05:35:25.859Z,21.80
2018-04-09T05:36:25.822Z,22.20
2018-04-09T05:37:25.808Z,21.40
2018-04-09T05:38:25.790Z,22.10
2018-04-09T05:39:25.780Z,21.60
2018-04-09T05:40:25.760Z,21.20
2018-04-09T05:41:25.746Z,21.40
2018-04-09T05:42:25.726Z,22.30
2018-04-09T05:43:25.712Z,22.20
2018-04-09T05:44:25.705Z,22.30
2018-04-09T05:45:25.682Z,21.60
2018-04-09T05:46:25.667Z,23.40
2018-04-09T05:47:25.651Z,23.30
2018-04-09T05:48:25.636Z,22.90
2018-04-09T05:49:25.622Z,23.50
2018-04-09T05:50:25.610Z,24.60
2018-04-09T05:51:25.593Z,24.10
2018-04-09T05:52:25.569Z,23.00
2018-04-09T05:53:25.612Z,23.30
2018-04-09T05:54:25.544Z,23.10
2018-04-09T05:55:25.529Z,24.10
2018-04-09T05:56:25.522Z,23.40
2018-04-09T05:57:25.498Z,24.00
2018-04-09T05:58:25.481Z,24.80
2018-04-09T05:59:25.466Z,25.80
2018-04-09T06:00:25.460Z,25.90
2018-04-09T06:01:25.439Z,25.50
2018-04-09T06:02:25.420Z,26.00
2018-04-09T06:03:25.413Z,26.70
2018-04-09T06:04:25.387Z,26.60
2018-04-09T06:05:25.374Z,27.70
2018-04-09T06:06:25.365Z,27.40
2018-04-09T06:07:25.343Z,28.80
2018-04-09T06:08:25.327Z,28.80
2018-04-09T06:09:25.316Z,29.20
2018-04-09T06:10:25.347Z,29.60
2018-04-09T06:11:25.286Z,30.40
2018-04-09T06:12:25.276Z,29.90
2018-04-09T06:13:25.259Z,30.80
2018-04-09T06:14:25.248Z,31.10
2018-04-09T06:15:25.223Z,30.90
2018-04-09T06:16:25.219Z,31.90
2018-04-09T06:17:25.198Z,32.30
2018-04-09T06:18:25.183Z,31.10
2018-04-09T06:19:25.173Z,32.30
2018-04-09T06:20:25.155Z,32.70
2018-04-09T06:21:25.152Z,34.40
2018-04-09T06:22:25.143Z,32.10
2018-04-09T06:23:25.122Z,32.20
2018-04-09T06:24:25.102Z,34.00
2018-04-09T06:25:25.095Z,33.70
2018-04-09T06:26:25.150Z,32.10
2018-04-09T06:27:25.075Z,29.80
2018-04-09T06:28:25.051Z,33.50
2018-04-09T06:29:25.068Z,33.60
2018-04-09T06:30:25.023Z,34.70
2018-04-09T06:31:25.011Z,33.70
2018-04-09T06:32:25.001Z,36.20
2018-04-09T06:33:24.993Z,33.20
2018-04-09T06:34:24.980Z,34.70
2018-04-09T06:35:24.979Z,34.40
2018-04-09T06:36:24.966Z,35.10
2018-04-09T06:37:24.942Z,34.70
2018-04-09T06:38:24.930Z,35.40
2018-04-09T06:39:24.921Z,33.60
2018-04-09T06:40:24.905Z,34.80
2018-04-09T06:41:24.906Z,33.70
2018-04-09T06:42:24.895Z,34.30
2018-04-09T06:43:24.878Z,34.20
2018-04-09T06:44:24.869Z,34.50
2018-04-09T06:45:24.852Z,34.90
2018-04-09T06:46:24.842Z,33.90
2018-04-09T06:47:24.828Z,35.20
2018-04-09T06:48:24.821Z,34.30
2018-04-09T06:49:24.806Z,34.70
2018-04-09T06:50:24.799Z,35.60
2018-04-09T06:51:24.781Z,33.70
2018-04-09T06:52:24.770Z,35.60
2018-04-09T06:53:24.759Z,34.60
2018-04-09T06:54:24.749Z,35.10
2018-04-09T06:55:24.733Z,35.20
2018-04-09T06:56:24.728Z,33.10
2018-04-09T06:57:24.711Z,35.80
2018-04-09T06:58:24.697Z,34.50
2018-04-09T06:59:24.699Z,35.70
2018-04-09T07:00:24.780Z,34.70
2018-04-09T07:01:24.675Z,35.20
2018-04-09T07:02:24.659Z,34.30
2018-04-09T07:03:24.648Z,34.60
2018-04-09T07:04:24.636Z,34.00
2018-04-09T07:05:24.612Z,34.30
2018-04-09T07:06:24.601Z,34.90
2018-04-09T07:07:24.604Z,34.90
2018-04-09T07:08:24.579Z,35.30
2018-04-09T07:09:24.566Z,34.30
2018-04-09T07:10:24.557Z,33.80
2018-04-09T07:11:24.551Z,35.40
2018-04-09T07:12:24.541Z,34.80
2018-04-09T07:13:24.524Z,34.40
2018-04-09T07:14:24.513Z,33.90
2018-04-09T07:15:24.495Z,36.00
2018-04-09T07:16:24.497Z,36.20
2018-04-09T07:17:24.467Z,34.60
2018-04-09T07:18:24.456Z,37.50
2018-04-09T07:19:24.447Z,36.20
2018-04-09T07:20:24.461Z,34.70
2018-04-09T07:21:24.427Z,35.20
2018-04-09T07:22:24.416Z,34.20
2018-04-09T07:23:24.402Z,35.40
2018-04-09T07:24:24.385Z,33.70
2018-04-09T07:25:24.375Z,33.80
2018-04-09T07:26:24.360Z,33.90
2018-04-09T07:27:24.348Z,34.20
2018-04-09T07:28:24.337Z,33.60
2018-04-09T07:29:24.330Z,34.20
2018-04-09T07:30:24.325Z,34.10
2018-04-09T07:31:24.304Z,34.20
2018-04-09T07:32:24.302Z,34.20
2018-04-09T07:33:24.284Z,34.10
2018-04-09T07:34:24.273Z,34.40
2018-04-09T07:35:24.271Z,34.20
2018-04-09T07:36:24.249Z,35.50
2018-04-09T07:37:24.236Z,35.50
2018-04-09T07:38:24.228Z,36.70
2018-04-09T07:39:24.213Z,36.40
2018-04-09T07:40:24.214Z,36.20
2018-04-09T07:41:24.193Z,35.80
2018-04-09T07:42:24.190Z,53.30
2018-04-09T07:43:24.173Z,40.50
2018-04-09T07:44:24.169Z,36.70
2018-04-09T07:45:24.148Z,37.10
2018-04-09T07:46:24.136Z,36.50
2018-04-09T07:47:24.125Z,37.50
2018-04-09T07:48:24.245Z,37.20
2018-04-09T07:49:24.102Z,37.50
2018-04-09T07:50:24.093Z,37.40
2018-04-09T07:51:24.083Z,36.80
2018-04-09T07:52:24.072Z,37.00
2018-04-09T07:53:24.059Z,39.20
2018-04-09T07:54:24.053Z,38.50
2018-04-09T07:55:24.074Z,39.30
2018-04-09T07:56:24.124Z,37.50
2018-04-09T07:57:24.027Z,38.20
2018-04-09T07:58:24.005Z,37.20
2018-04-09T07:59:23.995Z,37.70
2018-04-09T08:00:23.985Z,38.10
2018-04-09T08:01:23.977Z,37.90
2018-04-09T08:02:23.966Z,38.50
2018-04-09T08:03:23.953Z,39.40
2018-04-09T08:04:23.949Z,39.00
2018-04-09T08:05:23.947Z,39.70
2018-04-09T08:06:23.983Z,40.60
2018-04-09T08:07:23.920Z,40.20
2018-04-09T08:08:24.070Z,39.20
2018-04-09T08:09:23.903Z,40.50
2018-04-09T08:10:23.884Z,38.10
2018-04-09T08:11:23.876Z,38.60
2018-04-09T08:12:23.864Z,39.10
2018-04-09T08:13:23.881Z,39.00
2018-04-09T08:14:23.849Z,40.30
2018-04-09T08:15:23.842Z,41.60
2018-04-09T08:16:23.836Z,39.60
2018-04-09T08:17:23.820Z,38.80
2018-04-09T08:18:23.859Z,39.00
2018-04-09T08:19:23.915Z,40.50
2018-04-09T08:20:23.788Z,40.80
2018-04-09T08:21:23.793Z,40.80
2018-04-09T08:22:23.770Z,40.40
2018-04-09T08:23:23.764Z,41.60
2018-04-09T08:24:23.757Z,40.30
2018-04-09T08:25:23.740Z,41.10
2018-04-09T08:26:23.734Z,42.20
2018-04-09T08:27:23.725Z,42.50
2018-04-09T08:28:23.713Z,41.30
2018-04-09T08:29:23.707Z,42.40
2018-04-09T08:30:23.698Z,40.80
2018-04-09T08:31:23.731Z,42.60
2018-04-09T08:32:23.678Z,43.60
2018-04-09T08:33:23.675Z,44.30
2018-04-09T08:34:23.660Z,43.10
2018-04-09T08:35:23.656Z,43.80
2018-04-09T08:36:23.642Z,43.80
2018-04-09T08:37:23.636Z,43.60
2018-04-09T08:38:23.626Z,43.80
2018-04-09T08:39:23.660Z,44.40
2018-04-09T08:40:23.624Z,43.20
2018-04-09T08:41:23.599Z,43.50
2018-04-09T08:42:23.591Z,40.80
2018-04-09T08:43:23.580Z,44.20
2018-04-09T08:44:23.577Z,44.70
2018-04-09T08:45:23.569Z,42.90
2018-04-09T08:46:23.555Z,43.30
2018-04-09T08:47:23.548Z,44.20
2018-04-09T08:48:23.541Z,42.90
2018-04-09T08:49:23.530Z,42.90
2018-04-09T08:50:23.525Z,42.90
2018-04-09T08:51:23.518Z,44.00
2018-04-09T08:52:23.530Z,45.80
2018-04-09T08:53:23.500Z,45.80
2018-04-09T08:54:23.490Z,44.60
2018-04-09T08:55:23.482Z,47.10
2018-04-09T08:56:23.475Z,46.70
2018-04-09T08:57:23.466Z,47.40
2018-04-09T08:58:23.465Z,47.60
2018-04-09T08:59:23.448Z,47.90
2018-04-09T09:00:23.439Z,48.60
2018-04-09T09:01:23.434Z,48.40
2018-04-09T09:02:23.423Z,50.50
2018-04-09T09:03:23.416Z,50.00
2018-04-09T09:04:23.407Z,48.50
2018-04-09T09:05:23.482Z,49.80
2018-04-09T09:06:23.410Z,51.00
2018-04-09T09:07:23.386Z,50.30
2018-04-09T09:08:23.380Z,48.80
2018-04-09T09:09:23.371Z,48.40
2018-04-09T09:10:23.356Z,49.80
2018-04-09T09:11:23.351Z,50.00
2018-04-09T09:12:23.343Z,51.00
2018-04-09T09:13:23.341Z,49.30
2018-04-09T09:14:23.322Z,50.90
2018-04-09T09:15:23.321Z,52.00
2018-04-09T09:16:23.308Z,53.40
2018-04-09T09:17:23.300Z,50.80
2018-04-09T09:18:23.292Z,51.30
2018-04-09T09:19:23.282Z,52.30
2018-04-09T09:20:23.272Z,50.10
2018-04-09T09:21:23.272Z,50.30
2018-04-09T09:22:23.255Z,50.90
2018-04-09T09:23:23.246Z,51.90
2018-04-09T09:24:23.298Z,50.40
2018-04-09T09:25:23.238Z,50.00
2018-04-09T09:26:23.221Z,49.80
2018-04-09T09:27:23.211Z,50.90
2018-04-09T09:28:23.219Z,50.30
2018-04-09T09:29:23.200Z,50.30
2018-04-09T09:30:23.186Z,52.00
2018-04-09T09:31:23.184Z,52.90
2018-04-09T09:32:23.181Z,51.90
2018-04-09T09:33:23.179Z,52.40
2018-04-09T09:34:23.155Z,57.90
2018-04-09T09:35:23.140Z,51.70
2018-04-09T09:36:23.131Z,54.70
2018-04-09T09:37:23.123Z,52.90
2018-04-09T09:38:23.115Z,54.80
2018-04-09T09:39:23.112Z,54.60
2018-04-09T09:40:23.102Z,55.50
2018-04-09T09:41:23.100Z,52.50
2018-04-09T09:42:23.086Z,54.60
2018-04-09T09:43:23.071Z,53.80
2018-04-09T09:44:23.060Z,53.50
2018-04-09T09:45:23.060Z,52.50
2018-04-09T09:46:23.043Z,52.80
2018-04-09T09:47:23.043Z,53.30
2018-04-09T09:48:23.032Z,53.60
2018-04-09T09:49:23.046Z,51.10
2018-04-09T09:50:23.009Z,51.10
2018-04-09T09:51:23.000Z,51.40
2018-04-09T09:52:23.129Z,51.50
2018-04-09T09:53:22.986Z,53.20
2018-04-09T09:54:22.979Z,52.30
2018-04-09T09:55:23.085Z,50.20
2018-04-09T09:56:22.961Z,51.90
2018-04-09T09:57:22.952Z,52.10
2018-04-09T09:58:22.947Z,50.60
2018-04-09T09:59:22.940Z,51.40
2018-04-09T10:00:22.933Z,50.20
2018-04-09T10:01:22.928Z,49.50
2018-04-09T10:02:22.919Z,49.00
2018-04-09T10:03:22.911Z,49.20
2018-04-09T10:04:22.907Z,48.40
2018-04-09T10:05:22.899Z,49.10
2018-04-09T10:06:22.891Z,48.60
2018-04-09T10:07:22.894Z,47.30
2018-04-09T10:08:22.882Z,48.50
2018-04-09T10:09:22.870Z,46.30
2018-04-09T10:10:22.870Z,46.80
2018-04-09T10:11:22.977Z,48.50
2018-04-09T10:12:22.863Z,48.80
2018-04-09T10:13:22.853Z,49.90
2018-04-09T10:14:22.841Z,49.40
2018-04-09T10:15:22.835Z,48.50
2018-04-09T10:16:22.827Z,50.10
2018-04-09T10:17:22.824Z,47.70
2018-04-09T10:18:22.815Z,49.60
2018-04-09T10:19:22.811Z,49.40
2018-04-09T10:20:22.862Z,50.60
2018-04-09T10:21:22.798Z,50.70
2018-04-09T10:22:22.795Z,49.30
2018-04-09T10:23:22.788Z,48.10
2018-04-09T10:24:22.817Z,49.50
2018-04-09T10:25:22.775Z,48.30
2018-04-09T10:26:22.782Z,49.20
2018-04-09T10:27:22.767Z,50.30
2018-04-09T10:28:22.763Z,49.60
2018-04-09T10:29:22.764Z,50.30
2018-04-09T10:30:22.763Z,50.40
2018-04-09T10:31:22.745Z,48.00
2018-04-09T10:32:22.742Z,46.30
2018-04-09T10:33:22.736Z,46.30
2018-04-09T10:34:22.749Z,46.20
2018-04-09T10:35:22.725Z,50.50
2018-04-09T10:36:22.724Z,48.30
2018-04-09T10:37:22.714Z,48.90
2018-04-09T10:38:22.723Z,49.90
2018-04-09T10:39:22.702Z,47.40
2018-04-09T10:40:22.700Z,47.90
2018-04-09T10:41:22.717Z,46.70
2018-04-09T10:42:22.710Z,45.70
2018-04-09T10:43:22.693Z,48.40
2018-04-09T10:44:22.675Z,46.40
2018-04-09T10:45:22.678Z,48.20
2018-04-09T10:46:22.664Z,48.00
2018-04-09T10:47:22.656Z,46.80
2018-04-09T10:48:22.655Z,48.70
2018-04-09T10:49:22.647Z,47.60
2018-04-09T10:50:22.651Z,47.10
2018-04-09T10:51:22.634Z,47.90
2018-04-09T10:52:22.640Z,48.70
2018-04-09T10:53:22.623Z,48.00
2018-04-09T10:54:22.621Z,46.50
2018-04-09T10:55:22.683Z,47.40
2018-04-09T10:56:22.610Z,45.50
2018-04-09T10:57:22.612Z,47.60
2018-04-09T10:58:22.639Z,47.30
2018-04-09T10:59:22.592Z,46.60
2018-04-09T11:00:22.591Z,44.80
2018-04-09T11:01:22.600Z,45.70
2018-04-09T11:02:22.582Z,45.20
2018-04-09T11:03:22.573Z,45.20
2018-04-09T11:04:22.572Z,46.60
2018-04-09T11:05:22.562Z,46.20
2018-04-09T11:06:22.557Z,45.90
2018-04-09T11:07:22.558Z,45.90
2018-04-09T11:08:22.641Z,47.40
2018-04-09T11:09:22.539Z,47.40
2018-04-09T11:10:22.537Z,46.70
2018-04-09T11:11:22.530Z,47.50
2018-04-09T11:12:22.521Z,48.00
2018-04-09T11:13:22.536Z,51.10
2018-04-09T11:14:22.509Z,48.80
2018-04-09T11:15:22.553Z,48.80
2018-04-09T11:16:22.493Z,49.30
2018-04-09T11:17:22.488Z,49.40
2018-04-09T11:18:22.485Z,49.60
2018-04-09T11:19:22.483Z,50.40
2018-04-09T11:20:22.467Z,50.60
2018-04-09T11:21:22.557Z,49.50
2018-04-09T11:22:22.453Z,50.70
2018-04-09T11:23:22.452Z,49.00
2018-04-09T11:24:22.436Z,49.10
2018-04-09T11:25:22.444Z,49.70
2018-04-09T11:26:22.425Z,49.00
2018-04-09T11:27:22.420Z,49.20
2018-04-09T11:28:22.412Z,48.30
2018-04-09T11:29:22.404Z,48.10
2018-04-09T11:30:22.397Z,49.50
2018-04-09T11:31:22.502Z,48.30
2018-04-09T11:32:22.379Z,48.70
2018-04-09T11:33:22.379Z,48.70
2018-04-09T11:34:22.519Z,45.00
2018-04-09T11:35:22.356Z,48.90
2018-04-09T11:36:22.348Z,49.70
2018-04-09T11:37:22.346Z,48.60
2018-04-09T11:38:22.341Z,49.60
2018-04-09T11:39:22.353Z,49.40
2018-04-09T11:40:22.321Z,50.30
2018-04-09T11:41:22.322Z,50.10
2018-04-09T11:42:22.316Z,49.30
2018-04-09T11:43:22.301Z,51.20
2018-04-09T11:44:22.292Z,49.60
2018-04-09T11:45:22.282Z,49.80
2018-04-09T11:46:22.274Z,50.40
2018-04-09T11:47:22.266Z,50.80
2018-04-09T11:48:22.258Z,49.80
2018-04-09T11:49:22.249Z,48.80
2018-04-09T11:50:22.244Z,50.40
2018-04-09T11:51:22.232Z,49.90
2018-04-09T11:52:22.226Z,47.40
2018-04-09T11:53:22.220Z,49.60
2018-04-09T11:54:22.210Z,49.80
2018-04-09T11:55:22.258Z,52.10
2018-04-09T11:56:22.201Z,51.00
2018-04-09T11:57:22.204Z,52.70
2018-04-09T11:58:22.179Z,51.90
2018-04-09T11:59:22.176Z,50.50
2018-04-09T12:00:22.162Z,51.90
2018-04-09T12:01:22.157Z,51.10
2018-04-09T12:02:22.148Z,51.70
2018-04-09T12:03:22.136Z,49.80
2018-04-09T12:04:22.129Z,50.40
2018-04-09T12:05:22.129Z,51.60
2018-04-09T12:06:22.123Z,49.70
2018-04-09T12:07:22.105Z,52.70
2018-04-09T12:08:22.142Z,51.00
2018-04-09T12:09:22.092Z,50.10
2018-04-09T12:10:22.093Z,49.30
2018-04-09T12:11:22.075Z,50.30
2018-04-09T12:12:22.065Z,49.10
2018-04-09T12:13:22.060Z,49.20
2018-04-09T12:14:22.051Z,50.20
2018-04-09T12:15:22.041Z,50.50
2018-04-09T12:16:22.038Z,52.50
2018-04-09T12:17:22.025Z,46.60
2018-04-09T12:18:22.018Z,49.50
2018-04-09T12:19:22.010Z,48.50
2018-04-09T12:20:22.007Z,52.10
2018-04-09T12:21:21.992Z,51.50
2018-04-09T12:22:21.983Z,53.20
2018-04-09T12:23:21.995Z,52.50
2018-04-09T12:24:22.001Z,52.80
2018-04-09T12:25:21.958Z,53.70
2018-04-09T12:26:21.950Z,50.60
2018-04-09T12:27:22.006Z,51.60
2018-04-09T12:28:21.937Z,51.80
2018-04-09T12:29:21.935Z,51.00
2018-04-09T12:30:21.915Z,50.40
2018-04-09T12:31:21.905Z,51.20
2018-04-09T12:32:21.903Z,50.70
2018-04-09T12:33:21.892Z,52.60
2018-04-09T12:34:21.902Z,52.90
2018-04-09T12:35:21.885Z,52.70
2018-04-09T12:36:21.889Z,53.60
2018-04-09T12:37:21.854Z,52.40
2018-04-09T12:38:21.850Z,52.00
2018-04-09T12:39:21.848Z,49.60
2018-04-09T12:40:21.839Z,48.90
2018-04-09T12:41:21.831Z,51.00
2018-04-09T12:42:21.850Z,52.90
2018-04-09T12:43:21.803Z,52.40
2018-04-09T12:44:21.799Z,53.40
2018-04-09T12:45:21.798Z,53.10
2018-04-09T12:46:21.777Z,50.30
2018-04-09T12:47:21.771Z,50.30
2018-04-09T12:48:21.757Z,53.20
2018-04-09T12:49:21.766Z,52.10
2018-04-09T12:50:21.745Z,50.20
2018-04-09T12:51:21.734Z,51.10
2018-04-09T12:52:21.723Z,51.30